sensor_id;sensor_type;location;lat;lon;timestamp;P1;durP1;ratioP1;P2;durP2;ratioP2
80245;SDS011;69558;39.208;-77.226;2023-06-14T00:02:11;2.20;;;1.25;;
80245;SDS011;69558;39.208;-77.226;2023-06-14T00:04:37;2.60;;;1.38;;
80245;SDS011;69558;39.208;-77.226;2023-06-14T00:07:05;2.38;;;1.23;;
80245;SDS011;69558;39.208;-77.226;2023-06-14T00:09:33;3.13;;;1.48;;
80245;SDS011;69558;39.208;-77.226;2023-06-14T00:11:59;2.63;;;1.52;;
80245;SDS011;69558;39.208;-77.226;2023-06-14T00:14:25;2.90;;;1.42;;
80245;SDS011;69558;39.208;-77.226;2023-06-14T00:16:51;2.67;;;1.30;;
80245;SDS011;69558;39.208;-77.226;2023-06-14T00:19:24;2.45;;;1.42;;
80245;SDS011;69558;39.208;-77.226;2023-06-14T00:21:50;2.63;;;1.40;;
80245;SDS011;69558;39.208;-77.226;2023-06-14T00:24:20;2.83;;;1.48;;
80245;SDS011;69558;39.208;-77.226;2023-06-14T00:26:47;3.47;;;1.73;;
80245;SDS011;69558;39.208;-77.226;2023-06-14T00:29:15;2.67;;;1.50;;
80245;SDS011;69558;39.208;-77.226;2023-06-14T00:31:43;2.63;;;1.48;;
80245;SDS011;69558;39.208;-77.226;2023-06-14T00:36:37;2.45;;;1.38;;
80245;SDS011;69558;39.208;-77.226;2023-06-14T00:39:03;2.67;;;1.38;;
80245;SDS011;69558;39.208;-77.226;2023-06-14T00:41:29;2.92;;;1.67;;
80245;SDS011;69558;39.208;-77.226;2023-06-14T00:43:56;3.25;;;1.52;;
80245;SDS011;69558;39.208;-77.226;2023-06-14T00:46:23;2.28;;;1.33;;
80245;SDS011;69558;39.208;-77.226;2023-06-14T00:48:50;3.78;;;1.88;;
80245;SDS011;69558;39.208;-77.226;2023-06-14T00:51:16;3.40;;;2.03;;
80245;SDS011;69558;39.208;-77.226;2023-06-14T00:53:47;3.50;;;1.95;;
80245;SDS011;69558;39.208;-77.226;2023-06-14T00:56:14;2.90;;;1.58;;
80245;SDS011;69558;39.208;-77.226;2023-06-14T00:58:41;2.85;;;1.42;;
80245;SDS011;69558;39.208;-77.226;2023-06-14T01:01:08;2.88;;;1.52;;
80245;SDS011;69558;39.208;-77.226;2023-06-14T01:03:34;3.53;;;1.92;;
80245;SDS011;69558;39.208;-77.226;2023-06-14T01:11:59;2.90;;;1.58;;
80245;SDS011;69558;39.208;-77.226;2023-06-14T01:16:59;3.10;;;1.90;;
80245;SDS011;69558;39.208;-77.226;2023-06-14T01:19:25;3.10;;;1.70;;
80245;SDS011;69558;39.208;-77.226;2023-06-14T01:21:55;3.10;;;1.65;;
80245;SDS011;69558;39.208;-77.226;2023-06-14T01:24:22;2.70;;;1.70;;
80245;SDS011;69558;39.208;-77.226;2023-06-14T01:26:55;3.50;;;2.28;;
80245;SDS011;69558;39.208;-77.226;2023-06-14T01:29:25;3.67;;;1.98;;
80245;SDS011;69558;39.208;-77.226;2023-06-14T01:31:53;3.53;;;1.83;;
80245;SDS011;69558;39.208;-77.226;2023-06-14T01:34:20;3.80;;;1.95;;
80245;SDS011;69558;39.208;-77.226;2023-06-14T01:36:46;3.55;;;1.75;;
80245;SDS011;69558;39.208;-77.226;2023-06-14T01:39:14;3.72;;;1.98;;
80245;SDS011;69558;39.208;-77.226;2023-06-14T01:41:44;3.17;;;2.05;;
80245;SDS011;69558;39.208;-77.226;2023-06-14T01:44:12;3.30;;;1.95;;
80245;SDS011;69558;39.208;-77.226;2023-06-14T01:46:40;3.80;;;2.17;;
80245;SDS011;69558;39.208;-77.226;2023-06-14T01:49:07;3.15;;;1.50;;
80245;SDS011;69558;39.208;-77.226;2023-06-14T01:51:34;3.22;;;1.88;;
80245;SDS011;69558;39.208;-77.226;2023-06-14T01:54:01;3.78;;;1.77;;
80245;SDS011;69558;39.208;-77.226;2023-06-14T01:56:27;4.20;;;1.80;;
80245;SDS011;69558;39.208;-77.226;2023-06-14T01:58:53;3.92;;;2.40;;
80245;SDS011;69558;39.208;-77.226;2023-06-14T02:01:19;3.42;;;1.88;;
80245;SDS011;69558;39.208;-77.226;2023-06-14T02:06:13;3.75;;;2.17;;
80245;SDS011;69558;39.208;-77.226;2023-06-14T02:08:41;3.50;;;1.98;;
80245;SDS011;69558;39.208;-77.226;2023-06-14T02:11:07;3.63;;;1.88;;
80245;SDS011;69558;39.208;-77.226;2023-06-14T02:13:33;3.55;;;1.98;;
80245;SDS011;69558;39.208;-77.226;2023-06-14T02:16:00;3.67;;;1.90;;
80245;SDS011;69558;39.208;-77.226;2023-06-14T02:18:26;4.00;;;1.88;;
80245;SDS011;69558;39.208;-77.226;2023-06-14T02:20:52;3.90;;;1.98;;
80245;SDS011;69558;39.208;-77.226;2023-06-14T02:23:18;4.07;;;2.40;;
80245;SDS011;69558;39.208;-77.226;2023-06-14T02:25:45;3.47;;;2.05;;
80245;SDS011;69558;39.208;-77.226;2023-06-14T02:28:11;3.83;;;2.00;;
80245;SDS011;69558;39.208;-77.226;2023-06-14T02:30:37;3.80;;;2.22;;
80245;SDS011;69558;39.208;-77.226;2023-06-14T02:33:04;4.35;;;2.72;;
80245;SDS011;69558;39.208;-77.226;2023-06-14T02:35:30;3.97;;;2.42;;
80245;SDS011;69558;39.208;-77.226;2023-06-14T02:38:02;4.60;;;2.47;;
80245;SDS011;69558;39.208;-77.226;2023-06-14T02:40:28;4.10;;;2.13;;
80245;SDS011;69558;39.208;-77.226;2023-06-14T02:42:55;4.00;;;2.45;;
80245;SDS011;69558;39.208;-77.226;2023-06-14T02:45:22;3.60;;;1.98;;
80245;SDS011;69558;39.208;-77.226;2023-06-14T02:47:48;4.45;;;2.72;;
80245;SDS011;69558;39.208;-77.226;2023-06-14T02:50:14;4.55;;;2.83;;
80245;SDS011;69558;39.208;-77.226;2023-06-14T02:52:41;3.80;;;2.67;;
80245;SDS011;69558;39.208;-77.226;2023-06-14T02:55:07;4.35;;;3.10;;
80245;SDS011;69558;39.208;-77.226;2023-06-14T02:57:33;4.53;;;2.33;;
80245;SDS011;69558;39.208;-77.226;2023-06-14T02:59:59;3.25;;;1.88;;
80245;SDS011;69558;39.208;-77.226;2023-06-14T03:02:26;3.92;;;2.28;;
80245;SDS011;69558;39.208;-77.226;2023-06-14T03:04:51;4.07;;;2.17;;
80245;SDS011;69558;39.208;-77.226;2023-06-14T03:07:17;4.20;;;2.50;;
80245;SDS011;69558;39.208;-77.226;2023-06-14T03:09:45;3.63;;;2.17;;
80245;SDS011;69558;39.208;-77.226;2023-06-14T03:12:12;4.88;;;2.90;;
80245;SDS011;69558;39.208;-77.226;2023-06-14T03:14:38;4.03;;;2.30;;
80245;SDS011;69558;39.208;-77.226;2023-06-14T03:17:04;4.47;;;2.55;;
80245;SDS011;69558;39.208;-77.226;2023-06-14T03:19:31;4.47;;;2.35;;
80245;SDS011;69558;39.208;-77.226;2023-06-14T03:21:57;4.45;;;2.38;;
80245;SDS011;69558;39.208;-77.226;2023-06-14T03:24:26;4.70;;;2.78;;
80245;SDS011;69558;39.208;-77.226;2023-06-14T03:26:57;4.10;;;2.47;;
80245;SDS011;69558;39.208;-77.226;2023-06-14T03:29:23;4.50;;;2.55;;
80245;SDS011;69558;39.208;-77.226;2023-06-14T03:31:59;5.15;;;3.00;;
80245;SDS011;69558;39.208;-77.226;2023-06-14T03:34:27;4.47;;;2.47;;
80245;SDS011;69558;39.208;-77.226;2023-06-14T03:36:53;4.22;;;2.60;;
80245;SDS011;69558;39.208;-77.226;2023-06-14T03:39:19;4.68;;;2.67;;
80245;SDS011;69558;39.208;-77.226;2023-06-14T03:41:46;4.60;;;3.08;;
80245;SDS011;69558;39.208;-77.226;2023-06-14T03:44:17;4.82;;;2.63;;
80245;SDS011;69558;39.208;-77.226;2023-06-14T03:46:44;4.93;;;2.80;;
80245;SDS011;69558;39.208;-77.226;2023-06-14T03:49:11;4.53;;;2.42;;
80245;SDS011;69558;39.208;-77.226;2023-06-14T03:51:38;4.57;;;2.67;;
80245;SDS011;69558;39.208;-77.226;2023-06-14T03:54:05;4.47;;;2.72;;
80245;SDS011;69558;39.208;-77.226;2023-06-14T03:56:32;4.20;;;2.67;;
80245;SDS011;69558;39.208;-77.226;2023-06-14T03:58:58;4.20;;;2.50;;
80245;SDS011;69558;39.208;-77.226;2023-06-14T04:01:24;4.38;;;2.72;;
80245;SDS011;69558;39.208;-77.226;2023-06-14T04:03:55;4.68;;;2.70;;
80245;SDS011;69558;39.208;-77.226;2023-06-14T04:06:22;3.92;;;2.47;;
80245;SDS011;69558;39.208;-77.226;2023-06-14T04:11:17;4.20;;;2.88;;
80245;SDS011;69558;39.208;-77.226;2023-06-14T04:13:44;4.85;;;3.13;;
80245;SDS011;69558;39.208;-77.226;2023-06-14T04:16:10;4.55;;;2.55;;
80245;SDS011;69558;39.208;-77.226;2023-06-14T04:18:36;4.88;;;3.03;;
80245;SDS011;69558;39.208;-77.226;2023-06-14T04:21:02;5.47;;;3.45;;
80245;SDS011;69558;39.208;-77.226;2023-06-14T04:23:28;4.63;;;3.17;;
80245;SDS011;69558;39.208;-77.226;2023-06-14T04:25:55;4.43;;;2.78;;
80245;SDS011;69558;39.208;-77.226;2023-06-14T04:28:26;5.63;;;3.58;;
80245;SDS011;69558;39.208;-77.226;2023-06-14T04:30:53;4.93;;;2.95;;
80245;SDS011;69558;39.208;-77.226;2023-06-14T04:33:19;5.20;;;3.33;;
80245;SDS011;69558;39.208;-77.226;2023-06-14T04:35:45;5.15;;;2.92;;
80245;SDS011;69558;39.208;-77.226;2023-06-14T04:38:12;4.53;;;2.80;;
80245;SDS011;69558;39.208;-77.226;2023-06-14T04:40:38;5.05;;;3.13;;
80245;SDS011;69558;39.208;-77.226;2023-06-14T04:43:08;4.55;;;2.90;;
80245;SDS011;69558;39.208;-77.226;2023-06-14T04:45:38;5.07;;;3.08;;
80245;SDS011;69558;39.208;-77.226;2023-06-14T04:48:05;5.30;;;3.13;;
80245;SDS011;69558;39.208;-77.226;2023-06-14T04:50:32;5.50;;;3.58;;
80245;SDS011;69558;39.208;-77.226;2023-06-14T04:52:58;5.05;;;3.33;;
80245;SDS011;69558;39.208;-77.226;2023-06-14T04:55:25;4.63;;;3.08;;
80245;SDS011;69558;39.208;-77.226;2023-06-14T04:57:51;4.70;;;2.80;;
80245;SDS011;69558;39.208;-77.226;2023-06-14T05:00:21;5.05;;;3.25;;
80245;SDS011;69558;39.208;-77.226;2023-06-14T05:02:48;4.75;;;2.92;;
80245;SDS011;69558;39.208;-77.226;2023-06-14T05:07:42;4.85;;;3.03;;
80245;SDS011;69558;39.208;-77.226;2023-06-14T05:10:08;5.07;;;3.30;;
80245;SDS011;69558;39.208;-77.226;2023-06-14T05:12:35;5.47;;;2.92;;
80245;SDS011;69558;39.208;-77.226;2023-06-14T05:15:02;5.40;;;3.20;;
80245;SDS011;69558;39.208;-77.226;2023-06-14T05:17:28;4.88;;;2.92;;
80245;SDS011;69558;39.208;-77.226;2023-06-14T05:19:54;5.13;;;3.17;;
80245;SDS011;69558;39.208;-77.226;2023-06-14T05:22:23;5.28;;;3.47;;
80245;SDS011;69558;39.208;-77.226;2023-06-14T05:24:49;4.25;;;2.67;;
80245;SDS011;69558;39.208;-77.226;2023-06-14T05:27:17;5.30;;;3.47;;
80245;SDS011;69558;39.208;-77.226;2023-06-14T05:29:45;4.80;;;3.05;;
80245;SDS011;69558;39.208;-77.226;2023-06-14T05:32:11;4.88;;;3.35;;
80245;SDS011;69558;39.208;-77.226;2023-06-14T05:34:37;5.43;;;3.00;;
80245;SDS011;69558;39.208;-77.226;2023-06-14T05:37:03;5.13;;;3.25;;
80245;SDS011;69558;39.208;-77.226;2023-06-14T05:39:29;5.05;;;3.33;;
80245;SDS011;69558;39.208;-77.226;2023-06-14T05:41:55;5.28;;;3.05;;
80245;SDS011;69558;39.208;-77.226;2023-06-14T05:44:21;4.93;;;3.42;;
80245;SDS011;69558;39.208;-77.226;2023-06-14T05:46:46;5.18;;;3.35;;
80245;SDS011;69558;39.208;-77.226;2023-06-14T05:49:12;5.30;;;3.15;;
80245;SDS011;69558;39.208;-77.226;2023-06-14T05:51:38;4.78;;;3.00;;
80245;SDS011;69558;39.208;-77.226;2023-06-14T05:54:04;4.88;;;3.17;;
80245;SDS011;69558;39.208;-77.226;2023-06-14T05:56:30;5.28;;;3.33;;
80245;SDS011;69558;39.208;-77.226;2023-06-14T05:58:57;5.13;;;3.22;;
80245;SDS011;69558;39.208;-77.226;2023-06-14T06:01:26;5.57;;;3.15;;
80245;SDS011;69558;39.208;-77.226;2023-06-14T06:03:53;5.22;;;3.17;;
80245;SDS011;69558;39.208;-77.226;2023-06-14T06:06:18;4.97;;;3.20;;
80245;SDS011;69558;39.208;-77.226;2023-06-14T06:08:45;4.95;;;3.13;;
80245;SDS011;69558;39.208;-77.226;2023-06-14T06:11:10;5.18;;;3.35;;
80245;SDS011;69558;39.208;-77.226;2023-06-14T06:13:36;4.78;;;2.78;;
80245;SDS011;69558;39.208;-77.226;2023-06-14T06:16:04;5.78;;;3.40;;
80245;SDS011;69558;39.208;-77.226;2023-06-14T06:18:31;5.13;;;3.17;;
80245;SDS011;69558;39.208;-77.226;2023-06-14T06:20:57;4.68;;;3.03;;
80245;SDS011;69558;39.208;-77.226;2023-06-14T06:23:23;5.15;;;3.22;;
80245;SDS011;69558;39.208;-77.226;2023-06-14T06:25:49;5.28;;;3.50;;
80245;SDS011;69558;39.208;-77.226;2023-06-14T06:28:15;4.53;;;3.03;;
80245;SDS011;69558;39.208;-77.226;2023-06-14T06:30:41;5.57;;;3.28;;
80245;SDS011;69558;39.208;-77.226;2023-06-14T06:33:07;4.80;;;3.63;;
80245;SDS011;69558;39.208;-77.226;2023-06-14T06:35:33;5.00;;;2.80;;
80245;SDS011;69558;39.208;-77.226;2023-06-14T06:37:59;4.68;;;3.05;;
80245;SDS011;69558;39.208;-77.226;2023-06-14T06:40:26;6.18;;;3.17;;
80245;SDS011;69558;39.208;-77.226;2023-06-14T06:42:52;5.05;;;3.00;;
80245;SDS011;69558;39.208;-77.226;2023-06-14T06:45:18;5.15;;;3.17;;
80245;SDS011;69558;39.208;-77.226;2023-06-14T06:47:44;4.82;;;3.05;;
80245;SDS011;69558;39.208;-77.226;2023-06-14T06:50:10;5.68;;;3.70;;
80245;SDS011;69558;39.208;-77.226;2023-06-14T06:52:36;5.10;;;3.35;;
80245;SDS011;69558;39.208;-77.226;2023-06-14T06:55:03;6.25;;;3.25;;
80245;SDS011;69558;39.208;-77.226;2023-06-14T06:57:29;5.03;;;2.95;;
80245;SDS011;69558;39.208;-77.226;2023-06-14T06:59:55;4.72;;;3.17;;
80245;SDS011;69558;39.208;-77.226;2023-06-14T07:02:21;5.03;;;3.10;;
80245;SDS011;69558;39.208;-77.226;2023-06-14T07:04:47;5.38;;;3.38;;
80245;SDS011;69558;39.208;-77.226;2023-06-14T07:07:12;4.63;;;2.88;;
80245;SDS011;69558;39.208;-77.226;2023-06-14T07:09:39;4.97;;;3.17;;
80245;SDS011;69558;39.208;-77.226;2023-06-14T07:12:06;5.85;;;3.28;;
80245;SDS011;69558;39.208;-77.226;2023-06-14T07:14:33;4.80;;;2.67;;
80245;SDS011;69558;39.208;-77.226;2023-06-14T07:16:59;4.82;;;3.10;;
80245;SDS011;69558;39.208;-77.226;2023-06-14T07:19:25;4.65;;;2.97;;
80245;SDS011;69558;39.208;-77.226;2023-06-14T07:21:51;6.30;;;3.80;;
80245;SDS011;69558;39.208;-77.226;2023-06-14T07:24:18;5.13;;;3.35;;
80245;SDS011;69558;39.208;-77.226;2023-06-14T07:26:46;5.47;;;3.00;;
80245;SDS011;69558;39.208;-77.226;2023-06-14T07:29:14;4.80;;;3.20;;
80245;SDS011;69558;39.208;-77.226;2023-06-14T07:31:41;4.93;;;2.97;;
80245;SDS011;69558;39.208;-77.226;2023-06-14T07:34:07;4.88;;;3.30;;
80245;SDS011;69558;39.208;-77.226;2023-06-14T07:36:33;5.30;;;3.05;;
80245;SDS011;69558;39.208;-77.226;2023-06-14T07:38:59;5.80;;;3.58;;
80245;SDS011;69558;39.208;-77.226;2023-06-14T07:41:25;5.97;;;4.10;;
80245;SDS011;69558;39.208;-77.226;2023-06-14T07:43:52;4.50;;;2.65;;
80245;SDS011;69558;39.208;-77.226;2023-06-14T07:46:17;4.78;;;2.78;;
80245;SDS011;69558;39.208;-77.226;2023-06-14T07:48:45;4.85;;;3.35;;
80245;SDS011;69558;39.208;-77.226;2023-06-14T07:51:11;4.53;;;2.78;;
80245;SDS011;69558;39.208;-77.226;2023-06-14T07:53:37;5.15;;;3.13;;
80245;SDS011;69558;39.208;-77.226;2023-06-14T07:56:03;4.75;;;2.78;;
80245;SDS011;69558;39.208;-77.226;2023-06-14T07:58:29;4.50;;;2.97;;
80245;SDS011;69558;39.208;-77.226;2023-06-14T08:00:55;4.68;;;2.90;;
80245;SDS011;69558;39.208;-77.226;2023-06-14T08:03:21;4.85;;;2.97;;
80245;SDS011;69558;39.208;-77.226;2023-06-14T08:05:47;5.15;;;3.20;;
80245;SDS011;69558;39.208;-77.226;2023-06-14T08:08:14;4.90;;;2.90;;
80245;SDS011;69558;39.208;-77.226;2023-06-14T08:10:40;4.38;;;2.65;;
80245;SDS011;69558;39.208;-77.226;2023-06-14T08:13:07;4.53;;;2.67;;
80245;SDS011;69558;39.208;-77.226;2023-06-14T08:18:00;4.45;;;2.50;;
80245;SDS011;69558;39.208;-77.226;2023-06-14T08:20:26;4.70;;;3.03;;
80245;SDS011;69558;39.208;-77.226;2023-06-14T08:22:52;4.80;;;3.13;;
80245;SDS011;69558;39.208;-77.226;2023-06-14T08:25:21;4.97;;;3.17;;
80245;SDS011;69558;39.208;-77.226;2023-06-14T08:27:48;4.82;;;3.10;;
80245;SDS011;69558;39.208;-77.226;2023-06-14T08:30:14;4.80;;;2.97;;
80245;SDS011;69558;39.208;-77.226;2023-06-14T08:32:42;6.05;;;3.45;;
80245;SDS011;69558;39.208;-77.226;2023-06-14T08:35:09;4.75;;;2.58;;
80245;SDS011;69558;39.208;-77.226;2023-06-14T08:37:41;5.05;;;3.10;;
80245;SDS011;69558;39.208;-77.226;2023-06-14T08:40:18;4.65;;;2.90;;
80245;SDS011;69558;39.208;-77.226;2023-06-14T08:42:54;5.35;;;3.10;;
80245;SDS011;69558;39.208;-77.226;2023-06-14T08:45:20;4.47;;;2.88;;
80245;SDS011;69558;39.208;-77.226;2023-06-14T08:47:50;4.78;;;2.92;;
80245;SDS011;69558;39.208;-77.226;2023-06-14T08:50:23;5.75;;;3.00;;
80245;SDS011;69558;39.208;-77.226;2023-06-14T08:52:56;4.57;;;2.80;;
80245;SDS011;69558;39.208;-77.226;2023-06-14T08:55:27;4.55;;;2.65;;
80245;SDS011;69558;39.208;-77.226;2023-06-14T08:57:55;4.97;;;2.90;;
80245;SDS011;69558;39.208;-77.226;2023-06-14T09:00:26;4.60;;;2.92;;
80245;SDS011;69558;39.208;-77.226;2023-06-14T09:02:57;4.90;;;3.00;;
80245;SDS011;69558;39.208;-77.226;2023-06-14T09:05:26;5.43;;;3.40;;
80245;SDS011;69558;39.208;-77.226;2023-06-14T09:07:55;4.40;;;2.65;;
80245;SDS011;69558;39.208;-77.226;2023-06-14T09:10:25;4.95;;;3.10;;
80245;SDS011;69558;39.208;-77.226;2023-06-14T09:12:53;4.50;;;2.92;;
80245;SDS011;69558;39.208;-77.226;2023-06-14T09:15:20;5.22;;;2.97;;
80245;SDS011;69558;39.208;-77.226;2023-06-14T09:17:46;5.25;;;3.40;;
80245;SDS011;69558;39.208;-77.226;2023-06-14T09:20:13;4.07;;;2.67;;
80245;SDS011;69558;39.208;-77.226;2023-06-14T09:22:43;4.68;;;3.00;;
80245;SDS011;69558;39.208;-77.226;2023-06-14T09:25:10;4.43;;;3.00;;
80245;SDS011;69558;39.208;-77.226;2023-06-14T09:27:38;5.57;;;3.28;;
80245;SDS011;69558;39.208;-77.226;2023-06-14T09:30:08;5.25;;;3.17;;
80245;SDS011;69558;39.208;-77.226;2023-06-14T09:32:38;4.80;;;3.00;;
80245;SDS011;69558;39.208;-77.226;2023-06-14T09:35:06;4.38;;;2.95;;
80245;SDS011;69558;39.208;-77.226;2023-06-14T09:37:32;5.07;;;3.30;;
80245;SDS011;69558;39.208;-77.226;2023-06-14T09:40:00;5.05;;;3.15;;
80245;SDS011;69558;39.208;-77.226;2023-06-14T09:42:26;5.13;;;3.22;;
80245;SDS011;69558;39.208;-77.226;2023-06-14T09:44:54;5.43;;;3.78;;
80245;SDS011;69558;39.208;-77.226;2023-06-14T09:47:21;5.25;;;3.35;;
80245;SDS011;69558;39.208;-77.226;2023-06-14T09:49:48;5.32;;;3.33;;
80245;SDS011;69558;39.208;-77.226;2023-06-14T09:52:15;5.43;;;3.33;;
80245;SDS011;69558;39.208;-77.226;2023-06-14T09:54:43;5.15;;;3.08;;
80245;SDS011;69558;39.208;-77.226;2023-06-14T09:57:12;5.15;;;2.85;;
80245;SDS011;69558;39.208;-77.226;2023-06-14T09:59:48;4.50;;;2.78;;
80245;SDS011;69558;39.208;-77.226;2023-06-14T10:05:03;5.28;;;3.17;;
80245;SDS011;69558;39.208;-77.226;2023-06-14T10:07:32;5.22;;;3.10;;
80245;SDS011;69558;39.208;-77.226;2023-06-14T10:10:04;4.68;;;2.97;;
80245;SDS011;69558;39.208;-77.226;2023-06-14T10:12:32;5.25;;;3.13;;
80245;SDS011;69558;39.208;-77.226;2023-06-14T10:14:58;5.10;;;3.35;;
80245;SDS011;69558;39.208;-77.226;2023-06-14T10:17:38;4.68;;;3.13;;
80245;SDS011;69558;39.208;-77.226;2023-06-14T10:20:18;4.57;;;2.97;;
80245;SDS011;69558;39.208;-77.226;2023-06-14T10:23:03;5.13;;;3.05;;
80245;SDS011;69558;39.208;-77.226;2023-06-14T10:25:43;5.10;;;3.33;;
80245;SDS011;69558;39.208;-77.226;2023-06-14T10:33:39;4.82;;;3.13;;
80245;SDS011;69558;39.208;-77.226;2023-06-14T10:38:56;5.10;;;3.30;;
80245;SDS011;69558;39.208;-77.226;2023-06-14T10:41:34;4.90;;;3.40;;
80245;SDS011;69558;39.208;-77.226;2023-06-14T10:46:40;4.80;;;3.15;;
80245;SDS011;69558;39.208;-77.226;2023-06-14T10:49:11;4.30;;;2.75;;
80245;SDS011;69558;39.208;-77.226;2023-06-14T10:51:41;4.95;;;3.00;;
80245;SDS011;69558;39.208;-77.226;2023-06-14T10:54:13;4.40;;;3.00;;
80245;SDS011;69558;39.208;-77.226;2023-06-14T10:56:46;4.60;;;2.95;;
80245;SDS011;69558;39.208;-77.226;2023-06-14T10:59:13;5.13;;;3.85;;
80245;SDS011;69558;39.208;-77.226;2023-06-14T11:02:08;5.43;;;3.83;;
80245;SDS011;69558;39.208;-77.226;2023-06-14T11:12:43;5.38;;;3.17;;
80245;SDS011;69558;39.208;-77.226;2023-06-14T11:15:14;4.68;;;2.83;;
80245;SDS011;69558;39.208;-77.226;2023-06-14T11:17:49;4.80;;;3.03;;
80245;SDS011;69558;39.208;-77.226;2023-06-14T11:20:19;4.53;;;3.13;;
80245;SDS011;69558;39.208;-77.226;2023-06-14T11:22:45;4.88;;;3.03;;
80245;SDS011;69558;39.208;-77.226;2023-06-14T11:25:12;5.30;;;3.55;;
80245;SDS011;69558;39.208;-77.226;2023-06-14T11:27:38;5.53;;;3.38;;
80245;SDS011;69558;39.208;-77.226;2023-06-14T11:30:06;5.03;;;2.97;;
80245;SDS011;69558;39.208;-77.226;2023-06-14T11:32:34;5.15;;;3.45;;
80245;SDS011;69558;39.208;-77.226;2023-06-14T11:35:02;5.07;;;3.25;;
80245;SDS011;69558;39.208;-77.226;2023-06-14T11:37:31;4.68;;;2.92;;
80245;SDS011;69558;39.208;-77.226;2023-06-14T11:40:00;5.18;;;3.60;;
80245;SDS011;69558;39.208;-77.226;2023-06-14T11:42:30;4.85;;;3.00;;
80245;SDS011;69558;39.208;-77.226;2023-06-14T11:44:56;4.97;;;3.05;;
80245;SDS011;69558;39.208;-77.226;2023-06-14T11:49:49;5.25;;;3.22;;
80245;SDS011;69558;39.208;-77.226;2023-06-14T11:52:16;4.65;;;2.67;;
80245;SDS011;69558;39.208;-77.226;2023-06-14T11:54:42;4.88;;;2.85;;
80245;SDS011;69558;39.208;-77.226;2023-06-14T11:57:08;5.07;;;3.00;;
80245;SDS011;69558;39.208;-77.226;2023-06-14T11:59:39;4.80;;;3.05;;
80245;SDS011;69558;39.208;-77.226;2023-06-14T12:02:06;4.72;;;2.90;;
80245;SDS011;69558;39.208;-77.226;2023-06-14T12:04:33;5.13;;;3.55;;
80245;SDS011;69558;39.208;-77.226;2023-06-14T12:07:09;4.53;;;2.95;;
80245;SDS011;69558;39.208;-77.226;2023-06-14T12:10:03;5.00;;;3.53;;
80245;SDS011;69558;39.208;-77.226;2023-06-14T12:12:34;5.50;;;3.33;;
80245;SDS011;69558;39.208;-77.226;2023-06-14T12:15:03;4.63;;;2.58;;
80245;SDS011;69558;39.208;-77.226;2023-06-14T12:17:35;4.85;;;3.03;;
80245;SDS011;69558;39.208;-77.226;2023-06-14T12:20:06;5.38;;;3.40;;
80245;SDS011;69558;39.208;-77.226;2023-06-14T12:22:46;4.75;;;3.15;;
80245;SDS011;69558;39.208;-77.226;2023-06-14T12:25:34;4.60;;;3.00;;
80245;SDS011;69558;39.208;-77.226;2023-06-14T12:28:08;6.10;;;4.50;;
80245;SDS011;69558;39.208;-77.226;2023-06-14T12:30:35;4.95;;;3.35;;
80245;SDS011;69558;39.208;-77.226;2023-06-14T12:33:03;4.55;;;2.90;;
80245;SDS011;69558;39.208;-77.226;2023-06-14T12:35:29;5.05;;;3.53;;
80245;SDS011;69558;39.208;-77.226;2023-06-14T12:37:55;5.00;;;3.50;;
80245;SDS011;69558;39.208;-77.226;2023-06-14T12:40:21;5.38;;;3.63;;
80245;SDS011;69558;39.208;-77.226;2023-06-14T12:42:47;5.82;;;3.65;;
80245;SDS011;69558;39.208;-77.226;2023-06-14T12:45:13;5.45;;;3.58;;
80245;SDS011;69558;39.208;-77.226;2023-06-14T12:47:41;5.00;;;3.25;;
80245;SDS011;69558;39.208;-77.226;2023-06-14T12:50:07;5.07;;;3.17;;
80245;SDS011;69558;39.208;-77.226;2023-06-14T12:52:33;4.97;;;3.72;;
80245;SDS011;69558;39.208;-77.226;2023-06-14T12:55:03;4.75;;;3.03;;
80245;SDS011;69558;39.208;-77.226;2023-06-14T12:57:29;5.30;;;3.25;;
80245;SDS011;69558;39.208;-77.226;2023-06-14T12:59:55;4.95;;;3.25;;
80245;SDS011;69558;39.208;-77.226;2023-06-14T13:02:21;5.20;;;2.92;;
80245;SDS011;69558;39.208;-77.226;2023-06-14T13:04:48;5.03;;;3.28;;
80245;SDS011;69558;39.208;-77.226;2023-06-14T13:07:15;5.47;;;3.15;;
80245;SDS011;69558;39.208;-77.226;2023-06-14T13:09:41;5.43;;;3.10;;
80245;SDS011;69558;39.208;-77.226;2023-06-14T13:12:10;5.63;;;3.35;;
80245;SDS011;69558;39.208;-77.226;2023-06-14T13:14:39;5.15;;;3.35;;
80245;SDS011;69558;39.208;-77.226;2023-06-14T13:17:10;4.97;;;3.33;;
80245;SDS011;69558;39.208;-77.226;2023-06-14T13:19:36;4.60;;;2.83;;
80245;SDS011;69558;39.208;-77.226;2023-06-14T13:22:02;5.30;;;3.30;;
80245;SDS011;69558;39.208;-77.226;2023-06-14T13:24:28;4.95;;;2.92;;
80245;SDS011;69558;39.208;-77.226;2023-06-14T13:26:55;5.18;;;3.22;;
80245;SDS011;69558;39.208;-77.226;2023-06-14T13:29:22;5.15;;;3.13;;
80245;SDS011;69558;39.208;-77.226;2023-06-14T13:31:48;5.00;;;3.17;;
80245;SDS011;69558;39.208;-77.226;2023-06-14T13:34:15;5.22;;;2.88;;
80245;SDS011;69558;39.208;-77.226;2023-06-14T13:36:41;5.40;;;3.38;;
80245;SDS011;69558;39.208;-77.226;2023-06-14T13:39:08;4.95;;;3.10;;
80245;SDS011;69558;39.208;-77.226;2023-06-14T13:41:36;4.82;;;2.85;;
80245;SDS011;69558;39.208;-77.226;2023-06-14T13:44:02;4.88;;;2.70;;
80245;SDS011;69558;39.208;-77.226;2023-06-14T13:46:31;5.45;;;3.25;;
80245;SDS011;69558;39.208;-77.226;2023-06-14T13:48:57;4.93;;;3.13;;
80245;SDS011;69558;39.208;-77.226;2023-06-14T13:51:23;4.82;;;2.97;;
80245;SDS011;69558;39.208;-77.226;2023-06-14T13:53:49;4.70;;;3.08;;
80245;SDS011;69558;39.208;-77.226;2023-06-14T13:56:16;5.20;;;3.13;;
80245;SDS011;69558;39.208;-77.226;2023-06-14T13:58:43;5.15;;;3.47;;
80245;SDS011;69558;39.208;-77.226;2023-06-14T14:01:09;4.75;;;2.95;;
80245;SDS011;69558;39.208;-77.226;2023-06-14T14:03:36;5.25;;;3.42;;
80245;SDS011;69558;39.208;-77.226;2023-06-14T14:06:03;4.93;;;2.80;;
80245;SDS011;69558;39.208;-77.226;2023-06-14T14:10:56;5.03;;;3.15;;
80245;SDS011;69558;39.208;-77.226;2023-06-14T14:13:23;5.65;;;3.55;;
80245;SDS011;69558;39.208;-77.226;2023-06-14T14:15:50;5.32;;;2.90;;
80245;SDS011;69558;39.208;-77.226;2023-06-14T14:18:16;4.93;;;3.15;;
80245;SDS011;69558;39.208;-77.226;2023-06-14T14:20:42;5.22;;;3.05;;
80245;SDS011;69558;39.208;-77.226;2023-06-14T14:23:08;5.28;;;2.92;;
80245;SDS011;69558;39.208;-77.226;2023-06-14T14:25:34;5.30;;;3.88;;
80245;SDS011;69558;39.208;-77.226;2023-06-14T14:28:00;5.68;;;3.47;;
80245;SDS011;69558;39.208;-77.226;2023-06-14T14:30:26;5.18;;;3.22;;
80245;SDS011;69558;39.208;-77.226;2023-06-14T14:32:53;7.22;;;3.28;;
80245;SDS011;69558;39.208;-77.226;2023-06-14T14:35:19;5.47;;;3.75;;
80245;SDS011;69558;39.208;-77.226;2023-06-14T14:37:46;6.35;;;3.55;;
80245;SDS011;69558;39.208;-77.226;2023-06-14T14:40:12;5.22;;;3.10;;
80245;SDS011;69558;39.208;-77.226;2023-06-14T14:42:38;5.45;;;3.53;;
80245;SDS011;69558;39.208;-77.226;2023-06-14T14:45:04;5.63;;;3.55;;
80245;SDS011;69558;39.208;-77.226;2023-06-14T14:47:30;6.28;;;3.90;;
80245;SDS011;69558;39.208;-77.226;2023-06-14T14:49:56;6.22;;;3.35;;
80245;SDS011;69558;39.208;-77.226;2023-06-14T14:52:23;6.07;;;3.22;;
80245;SDS011;69558;39.208;-77.226;2023-06-14T14:54:50;7.78;;;3.53;;
80245;SDS011;69558;39.208;-77.226;2023-06-14T14:57:16;5.80;;;3.58;;
80245;SDS011;69558;39.208;-77.226;2023-06-14T14:59:43;5.20;;;3.33;;
80245;SDS011;69558;39.208;-77.226;2023-06-14T15:02:09;6.72;;;3.72;;
80245;SDS011;69558;39.208;-77.226;2023-06-14T15:04:35;5.53;;;3.30;;
80245;SDS011;69558;39.208;-77.226;2023-06-14T15:07:01;5.38;;;3.05;;
80245;SDS011;69558;39.208;-77.226;2023-06-14T15:09:27;5.38;;;3.53;;
80245;SDS011;69558;39.208;-77.226;2023-06-14T15:11:53;5.97;;;4.00;;